Time;durP1;ratioP1;P1;durP2;ratioP2;P2;SDS_P1;SDS_P2;PMS_P1;PMS_P2;Temp;Humidity;BMP_temperature;BMP_pressure;BME280_temperature;BME280_humidity;BME280_pressure;Samples;Min_cycle;Max_cycle;Signal;HPM_P1;HPM_P2
2021/08/23 00:00:39;;;;;;;5.68;2.72;;;;;;;;;;5014573;28;20080;-54
2021/08/23 00:03:05;;;;;;;6.88;3.22;;;;;;;;;;5016260;28;20129;-54
2021/08/23 00:05:32;;;;;;;5.90;3.00;;;;;;;;;;5015403;28;20892;-54
2021/08/23 00:07:58;;;;;;;8.15;3.42;;;;;;;;;;5016164;28;20052;-54
2021/08/23 00:10:24;;;;;;;7.38;3.10;;;;;;;;;;5014437;28;20029;-54
2021/08/23 00:12:49;;;;;;;5.72;3.10;;;;;;;;;;5015820;28;20419;-55
2021/08/23 00:15:15;;;;;;;6.25;2.95;;;;;;;;;;5016594;28;20793;-55
2021/08/23 00:17:42;;;;;;;5.20;2.47;;;;;;;;;;5013903;28;20057;-55
2021/08/23 00:20:10;;;;;;;5.57;2.70;;;;;;;;;;5015063;28;20487;-55
2021/08/23 00:22:47;;;;;;;5.47;2.63;;;;;;;;;;5013593;28;20041;-55
2021/08/23 00:25:13;;;;;;;7.97;2.63;;;;;;;;;;5014859;28;20063;-55
2021/08/23 00:27:39;;;;;;;6.68;2.90;;;;;;;;;;5013119;28;20398;-55
2021/08/23 00:30:07;;;;;;;6.00;3.15;;;;;;;;;;5012625;28;20049;-55
2021/08/23 00:32:32;;;;;;;6.28;2.88;;;;;;;;;;5013450;28;20136;-54
2021/08/23 00:34:58;;;;;;;6.38;2.97;;;;;;;;;;5014325;28;20860;-53
2021/08/23 00:37:24;;;;;;;5.60;2.45;;;;;;;;;;5012678;28;20038;-54
2021/08/23 00:39:50;;;;;;;6.18;2.58;;;;;;;;;;5013301;28;20041;-64
2021/08/23 00:42:16;;;;;;;6.25;2.90;;;;;;;;;;5014909;28;20033;-54
2021/08/23 00:44:42;;;;;;;6.43;2.83;;;;;;;;;;5017412;28;20060;-56
2021/08/23 00:47:08;;;;;;;5.38;2.60;;;;;;;;;;5018244;28;20473;-56
2021/08/23 00:49:35;;;;;;;7.65;2.83;;;;;;;;;;5002599;28;20042;-55
2021/08/23 00:52:01;;;;;;;5.63;2.60;;;;;;;;;;5017000;28;20042;-56
2021/08/23 00:54:27;;;;;;;6.85;2.85;;;;;;;;;;5018450;28;20099;-55
2021/08/23 00:56:52;;;;;;;4.82;2.47;;;;;;;;;;5018915;28;20037;-54
2021/08/23 00:59:20;;;;;;;5.80;2.65;;;;;;;;;;5019697;28;20099;-55
2021/08/23 01:01:50;;;;;;;8.48;2.47;;;;;;;;;;5001869;28;20044;-55
2021/08/23 01:04:20;;;;;;;8.68;2.63;;;;;;;;;;4999854;28;20779;-56
2021/08/23 01:06:46;;;;;;;8.02;2.70;;;;;;;;;;4999421;28;20061;-56
2021/08/23 01:09:14;;;;;;;6.47;3.35;;;;;;;;;;4995238;28;20426;-55
2021/08/23 01:11:45;;;;;;;8.27;3.03;;;;;;;;;;5014257;28;20467;-55
2021/08/23 01:14:11;;;;;;;6.53;2.97;;;;;;;;;;5006634;28;20087;-56
2021/08/23 01:16:37;;;;;;;6.75;2.75;;;;;;;;;;4995866;28;22207;-57
2021/08/23 01:19:04;;;;;;;7.10;3.13;;;;;;;;;;4994867;28;20130;-56
2021/08/23 01:21:30;;;;;;;12.75;3.78;;;;;;;;;;4997376;28;20041;-55
2021/08/23 01:23:57;;;;;;;5.95;3.42;;;;;;;;;;4999293;28;20045;-55
2021/08/23 01:26:25;;;;;;;7.40;3.55;;;;;;;;;;4996848;28;20082;-55
2021/08/23 01:28:51;;;;;;;7.68;3.22;;;;;;;;;;5007684;28;20331;-54
2021/08/23 01:31:29;;;;;;;10.57;4.78;;;;;;;;;;5019234;28;20045;-55
2021/08/23 01:33:55;;;;;;;7.97;3.60;;;;;;;;;;5017497;28;20079;-55
2021/08/23 01:36:22;;;;;;;6.78;2.75;;;;;;;;;;5017717;28;20053;-55
2021/08/23 01:38:48;;;;;;;6.70;2.72;;;;;;;;;;5017434;28;20060;-55
2021/08/23 01:41:13;;;;;;;6.68;2.53;;;;;;;;;;5015294;28;20788;-53
2021/08/23 01:43:39;;;;;;;5.60;2.63;;;;;;;;;;5014952;28;20117;-53
2021/08/23 01:46:05;;;;;;;5.22;2.28;;;;;;;;;;5017829;28;20053;-54
2021/08/23 01:48:31;;;;;;;5.97;2.42;;;;;;;;;;5015675;28;20033;-54
2021/08/23 01:50:57;;;;;;;5.28;2.25;;;;;;;;;;5017377;28;20103;-55
2021/08/23 01:53:23;;;;;;;7.50;3.00;;;;;;;;;;5016461;28;20046;-53
2021/08/23 01:55:50;;;;;;;5.38;2.80;;;;;;;;;;5016933;28;20123;-54
2021/08/23 01:58:16;;;;;;;5.68;2.45;;;;;;;;;;5015396;28;20045;-53
2021/08/23 02:00:43;;;;;;;4.75;2.60;;;;;;;;;;5017108;28;20037;-55
2021/08/23 02:03:09;;;;;;;6.68;2.28;;;;;;;;;;5017879;28;20175;-54
2021/08/23 02:05:35;;;;;;;5.75;2.20;;;;;;;;;;5017458;28;20034;-55
2021/08/23 02:08:01;;;;;;;6.18;2.33;;;;;;;;;;5017529;28;20057;-55
2021/08/23 02:10:26;;;;;;;10.85;2.45;;;;;;;;;;5017064;28;20037;-53
2021/08/23 02:12:52;;;;;;;4.68;2.30;;;;;;;;;;5017665;28;20051;-55
2021/08/23 02:15:18;;;;;;;4.55;2.28;;;;;;;;;;5016747;28;20124;-55
2021/08/23 02:17:44;;;;;;;3.95;1.83;;;;;;;;;;5017005;28;20134;-55
2021/08/23 02:20:10;;;;;;;3.75;1.67;;;;;;;;;;5017472;28;20293;-55
2021/08/23 02:22:36;;;;;;;6.05;2.55;;;;;;;;;;5015525;28;20041;-55
2021/08/23 02:25:06;;;;;;;6.10;2.88;;;;;;;;;;5017238;28;20125;-55
2021/08/23 02:27:34;;;;;;;6.72;2.80;;;;;;;;;;5016063;28;20068;-55
2021/08/23 02:30:00;;;;;;;5.88;2.65;;;;;;;;;;5018236;28;20049;-54
2021/08/23 02:32:26;;;;;;;6.60;2.55;;;;;;;;;;5017372;28;20429;-52
2021/08/23 02:34:51;;;;;;;5.53;2.90;;;;;;;;;;5016882;28;20080;-55
2021/08/23 02:37:17;;;;;;;5.20;2.63;;;;;;;;;;5015659;28;20038;-54
2021/08/23 02:39:43;;;;;;;5.30;2.63;;;;;;;;;;5001390;28;20464;-54
2021/08/23 02:42:09;;;;;;;5.95;3.17;;;;;;;;;;5000148;28;20042;-55
2021/08/23 02:44:35;;;;;;;6.75;3.10;;;;;;;;;;5012495;28;20637;-54
2021/08/23 02:47:01;;;;;;;7.07;3.05;;;;;;;;;;4993926;28;20061;-55
2021/08/23 02:49:26;;;;;;;7.63;3.20;;;;;;;;;;5012784;28;20045;-55
2021/08/23 02:51:53;;;;;;;6.40;2.78;;;;;;;;;;5017260;28;20041;-55
2021/08/23 02:54:20;;;;;;;4.97;2.58;;;;;;;;;;5015449;28;20037;-53
2021/08/23 02:56:45;;;;;;;5.88;2.88;;;;;;;;;;4994015;28;20484;-54
2021/08/23 02:59:11;;;;;;;5.03;2.55;;;;;;;;;;5004335;28;20045;-53
2021/08/23 03:01:37;;;;;;;5.80;2.92;;;;;;;;;;4993823;28;20061;-54
2021/08/23 03:04:03;;;;;;;7.13;3.20;;;;;;;;;;4989237;28;20605;-54
2021/08/23 03:06:29;;;;;;;8.05;3.13;;;;;;;;;;5001165;28;20655;-53
2021/08/23 03:08:55;;;;;;;6.82;2.80;;;;;;;;;;5009173;28;20525;-53
2021/08/23 03:11:21;;;;;;;6.45;3.00;;;;;;;;;;5005629;28;20116;-55
2021/08/23 03:13:47;;;;;;;6.18;3.00;;;;;;;;;;4992447;28;20038;-54
2021/08/23 03:16:13;;;;;;;5.63;2.63;;;;;;;;;;5010342;28;21120;-55
2021/08/23 03:18:39;;;;;;;5.35;2.95;;;;;;;;;;4987223;28;20087;-54
2021/08/23 03:21:05;;;;;;;7.32;2.95;;;;;;;;;;5004662;28;20065;-54
2021/08/23 03:23:31;;;;;;;8.80;3.13;;;;;;;;;;4997849;28;20044;-55
2021/08/23 03:25:57;;;;;;;6.97;2.83;;;;;;;;;;5010937;28;20542;-53
2021/08/23 03:28:23;;;;;;;5.47;3.03;;;;;;;;;;4991642;28;20042;-54
2021/08/23 03:30:49;;;;;;;5.80;2.90;;;;;;;;;;4992592;28;20160;-55
2021/08/23 03:33:15;;;;;;;8.43;3.17;;;;;;;;;;5010117;28;20133;-56
2021/08/23 03:35:41;;;;;;;5.70;3.00;;;;;;;;;;4991461;28;20050;-51
2021/08/23 03:38:07;;;;;;;7.03;3.17;;;;;;;;;;5000988;28;20083;-53
2021/08/23 03:40:33;;;;;;;6.05;2.60;;;;;;;;;;4996859;28;20479;-53
2021/08/23 03:42:58;;;;;;;6.22;3.05;;;;;;;;;;4994929;28;20040;-54
2021/08/23 03:45:24;;;;;;;6.15;3.20;;;;;;;;;;4991469;28;20050;-52
2021/08/23 03:47:50;;;;;;;5.60;2.72;;;;;;;;;;4993697;28;20049;-54
2021/08/23 03:50:16;;;;;;;5.45;2.80;;;;;;;;;;5000010;28;20041;-54
2021/08/23 03:52:42;;;;;;;6.60;2.88;;;;;;;;;;5010172;28;20136;-54
2021/08/23 03:55:08;;;;;;;6.75;3.17;;;;;;;;;;4993666;28;20049;-51
2021/08/23 03:57:35;;;;;;;5.50;2.75;;;;;;;;;;4996142;28;20526;-53
2021/08/23 04:00:01;;;;;;;6.05;3.00;;;;;;;;;;5002934;28;20593;-54
2021/08/23 04:02:27;;;;;;;6.40;2.85;;;;;;;;;;4992931;28;20034;-54
2021/08/23 04:04:53;;;;;;;5.10;2.72;;;;;;;;;;5016992;28;20668;-52
2021/08/23 04:07:19;;;;;;;5.75;2.95;;;;;;;;;;5015069;28;20045;-53
2021/08/23 04:09:45;;;;;;;5.20;2.55;;;;;;;;;;5015461;28;20128;-52
2021/08/23 04:12:10;;;;;;;5.88;2.70;;;;;;;;;;5016251;28;20044;-54
2021/08/23 04:14:36;;;;;;;4.80;2.25;;;;;;;;;;5015967;28;20038;-52
2021/08/23 04:17:02;;;;;;;5.05;2.63;;;;;;;;;;5015598;28;20053;-56
2021/08/23 04:19:29;;;;;;;4.20;1.90;;;;;;;;;;5015651;28;20071;-54
2021/08/23 04:21:54;;;;;;;5.28;2.25;;;;;;;;;;5014638;28;20041;-54
2021/08/23 04:24:20;;;;;;;4.75;2.28;;;;;;;;;;5013764;28;20044;-53
2021/08/23 04:26:46;;;;;;;4.57;2.08;;;;;;;;;;5014822;28;20176;-54
2021/08/23 04:29:12;;;;;;;4.55;2.15;;;;;;;;;;5014332;28;20041;-54
2021/08/23 04:31:38;;;;;;;4.25;1.77;;;;;;;;;;5015729;28;20041;-54
2021/08/23 04:34:24;;;;;;;3.78;1.60;;;;;;;;;;5012869;28;21016;-54
2021/08/23 04:36:49;;;;;;;4.63;1.60;;;;;;;;;;5009978;28;20058;-52
2021/08/23 04:39:15;;;;;;;5.65;1.77;;;;;;;;;;5013266;28;20140;-52
2021/08/23 04:41:42;;;;;;;4.22;1.80;;;;;;;;;;5016471;28;20034;-51
2021/08/23 04:44:08;;;;;;;4.28;1.80;;;;;;;;;;5016625;28;20045;-53
2021/08/23 04:46:34;;;;;;;3.83;1.73;;;;;;;;;;5013853;28;20597;-53
2021/08/23 04:49:00;;;;;;;3.90;1.65;;;;;;;;;;5015638;28;20033;-53
2021/08/23 04:51:26;;;;;;;4.05;1.55;;;;;;;;;;5015273;28;20501;-54
2021/08/23 04:53:52;;;;;;;3.78;1.85;;;;;;;;;;5015404;28;20123;-54
2021/08/23 04:56:18;;;;;;;4.38;1.60;;;;;;;;;;5015055;28;20041;-54
2021/08/23 04:58:44;;;;;;;3.55;1.58;;;;;;;;;;5003717;28;20053;-53
2021/08/23 05:01:10;;;;;;;3.63;1.60;;;;;;;;;;5005705;28;20044;-54
2021/08/23 05:03:35;;;;;;;3.45;1.38;;;;;;;;;;5014942;28;20041;-54
2021/08/23 05:06:01;;;;;;;3.25;1.38;;;;;;;;;;5002141;28;20592;-54
2021/08/23 05:08:27;;;;;;;3.50;1.20;;;;;;;;;;5011716;28;20140;-53
2021/08/23 05:10:53;;;;;;;2.75;1.05;;;;;;;;;;5005861;28;20550;-54
2021/08/23 05:13:19;;;;;;;3.00;1.13;;;;;;;;;;5011951;28;20049;-54
2021/08/23 05:15:44;;;;;;;3.00;1.10;;;;;;;;;;4995809;28;20037;-53
2021/08/23 05:18:10;;;;;;;2.70;0.95;;;;;;;;;;4991729;28;20530;-53
2021/08/23 05:20:36;;;;;;;3.80;1.00;;;;;;;;;;4991301;28;20047;-54
2021/08/23 05:23:02;;;;;;;2.22;0.80;;;;;;;;;;5007227;28;20051;-53
2021/08/23 05:25:28;;;;;;;1.80;0.60;;;;;;;;;;5006581;28;20042;-53
2021/08/23 05:27:54;;;;;;;2.38;0.70;;;;;;;;;;4991171;28;20054;-54
2021/08/23 05:30:20;;;;;;;1.65;0.63;;;;;;;;;;5003454;28;20095;-54
2021/08/23 05:32:46;;;;;;;1.67;0.60;;;;;;;;;;5015218;28;20106;-52
2021/08/23 05:35:12;;;;;;;1.75;0.60;;;;;;;;;;4998264;28;20056;-53
2021/08/23 05:37:37;;;;;;;2.70;0.77;;;;;;;;;;4997147;28;20042;-53
2021/08/23 05:40:03;;;;;;;2.30;0.80;;;;;;;;;;4992443;28;20037;-51
2021/08/23 05:42:29;;;;;;;2.22;0.80;;;;;;;;;;4993331;28;20053;-54
2021/08/23 05:44:56;;;;;;;1.77;0.70;;;;;;;;;;4999735;28;20133;-54
2021/08/23 05:47:22;;;;;;;2.25;0.73;;;;;;;;;;5004536;28;20092;-55
2021/08/23 05:49:48;;;;;;;3.38;1.20;;;;;;;;;;5002115;28;20038;-55
2021/08/23 05:52:13;;;;;;;2.80;0.90;;;;;;;;;;5002038;28;20083;-53
2021/08/23 05:54:40;;;;;;;3.40;1.10;;;;;;;;;;5008657;28;22181;-55
2021/08/23 05:57:06;;;;;;;3.33;1.33;;;;;;;;;;4997040;28;20032;-55
2021/08/23 05:59:32;;;;;;;6.13;0.85;;;;;;;;;;4998256;28;20472;-54
2021/08/23 06:01:58;;;;;;;2.78;1.13;;;;;;;;;;5011666;28;20049;-55
2021/08/23 06:04:24;;;;;;;2.75;1.00;;;;;;;;;;4997487;28;20030;-55
2021/08/23 06:06:50;;;;;;;2.55;1.05;;;;;;;;;;5006349;28;20069;-53
2021/08/23 06:09:20;;;;;;;3.13;1.23;;;;;;;;;;4999542;28;20089;-53
2021/08/23 06:11:46;;;;;;;3.20;1.00;;;;;;;;;;5017869;28;20034;-54
2021/08/23 06:14:12;;;;;;;3.72;1.30;;;;;;;;;;5002422;28;20057;-55
2021/08/23 06:16:38;;;;;;;3.25;1.27;;;;;;;;;;4997421;28;20318;-55
2021/08/23 06:19:04;;;;;;;3.05;1.27;;;;;;;;;;4999494;28;20464;-55
2021/08/23 06:21:30;;;;;;;3.70;1.50;;;;;;;;;;4995590;28;20081;-54
2021/08/23 06:23:55;;;;;;;3.13;1.20;;;;;;;;;;4998044;28;20038;-54
2021/08/23 06:26:21;;;;;;;4.47;1.52;;;;;;;;;;4999961;28;20055;-53
2021/08/23 06:28:47;;;;;;;3.50;1.40;;;;;;;;;;5004588;28;20041;-54
2021/08/23 06:31:13;;;;;;;2.85;0.95;;;;;;;;;;5017813;28;20061;-53
2021/08/23 06:33:39;;;;;;;6.18;1.80;;;;;;;;;;5016707;28;20045;-53
2021/08/23 06:36:05;;;;;;;2.72;1.30;;;;;;;;;;5016266;28;20505;-52
2021/08/23 06:38:30;;;;;;;3.70;1.75;;;;;;;;;;5016100;28;20046;-53
2021/08/23 06:40:57;;;;;;;7.97;2.50;;;;;;;;;;5016223;28;20037;-54
2021/08/23 06:43:23;;;;;;;3.15;1.23;;;;;;;;;;5015344;28;20037;-54
2021/08/23 06:45:48;;;;;;;3.50;1.70;;;;;;;;;;5016482;28;20041;-51
2021/08/23 06:48:14;;;;;;;4.45;1.30;;;;;;;;;;5016313;28;20483;-55
2021/08/23 06:50:40;;;;;;;3.28;1.35;;;;;;;;;;5015003;28;20160;-54
2021/08/23 06:53:06;;;;;;;3.90;1.70;;;;;;;;;;5016970;28;20056;-53
2021/08/23 06:55:33;;;;;;;3.83;1.38;;;;;;;;;;5016546;28;20038;-54
2021/08/23 06:57:59;;;;;;;3.45;1.30;;;;;;;;;;5016812;28;20041;-54
2021/08/23 07:00:25;;;;;;;3.05;0.95;;;;;;;;;;5016001;28;20364;-52
2021/08/23 07:02:51;;;;;;;3.10;1.10;;;;;;;;;;5016697;28;20040;-51
2021/08/23 07:05:17;;;;;;;3.22;0.85;;;;;;;;;;5018112;28;20449;-52
2021/08/23 07:07:43;;;;;;;2.80;0.90;;;;;;;;;;4999148;28;20084;-54
2021/08/23 07:10:11;;;;;;;2.60;0.77;;;;;;;;;;5006657;28;20430;-54
2021/08/23 07:12:37;;;;;;;1.98;0.80;;;;;;;;;;4993379;28;20521;-55
2021/08/23 07:15:03;;;;;;;1.95;0.55;;;;;;;;;;5015368;28;20041;-53
2021/08/23 07:17:29;;;;;;;3.85;1.00;;;;;;;;;;5012592;28;20132;-53
2021/08/23 07:19:55;;;;;;;3.20;0.93;;;;;;;;;;5007306;28;20432;-51
2021/08/23 07:22:21;;;;;;;2.63;0.77;;;;;;;;;;5015036;28;20498;-55
2021/08/23 07:24:49;;;;;;;2.45;0.90;;;;;;;;;;5003006;28;20208;-54
2021/08/23 07:27:15;;;;;;;2.70;1.02;;;;;;;;;;4995948;28;20096;-52
2021/08/23 07:29:41;;;;;;;7.57;1.15;;;;;;;;;;4997504;28;20033;-54
2021/08/23 07:32:08;;;;;;;2.67;1.13;;;;;;;;;;4996811;28;20051;-54
2021/08/23 07:34:33;;;;;;;3.72;0.98;;;;;;;;;;4993268;28;20042;-53
2021/08/23 07:36:59;;;;;;;2.95;1.10;;;;;;;;;;5001887;28;20088;-54
2021/08/23 07:39:25;;;;;;;3.10;1.00;;;;;;;;;;4995841;28;20050;-54
2021/08/23 07:41:51;;;;;;;2.60;0.90;;;;;;;;;;4996206;28;20050;-54
2021/08/23 07:44:17;;;;;;;3.08;1.10;;;;;;;;;;5002316;28;20045;-53
2021/08/23 07:46:43;;;;;;;2.65;0.93;;;;;;;;;;5003941;28;20058;-54
2021/08/23 07:49:08;;;;;;;2.65;0.90;;;;;;;;;;4992409;28;20038;-53
2021/08/23 07:51:34;;;;;;;3.63;0.98;;;;;;;;;;5014473;28;20684;-54
2021/08/23 07:54:00;;;;;;;2.42;0.80;;;;;;;;;;5001043;28;20034;-52
2021/08/23 07:56:26;;;;;;;2.70;0.80;;;;;;;;;;5008435;28;20603;-52
2021/08/23 07:58:52;;;;;;;2.95;0.85;;;;;;;;;;4994597;28;20057;-51
2021/08/23 08:01:19;;;;;;;1.98;0.70;;;;;;;;;;5013258;28;20537;-53
2021/08/23 08:03:45;;;;;;;2.65;0.80;;;;;;;;;;5011012;28;20052;-53
2021/08/23 08:06:11;;;;;;;2.58;0.90;;;;;;;;;;4998069;28;20058;-54
2021/08/23 08:08:37;;;;;;;2.33;0.90;;;;;;;;;;5003658;28;20042;-51
2021/08/23 08:11:02;;;;;;;2.03;0.70;;;;;;;;;;5002494;28;20053;-54
2021/08/23 08:13:28;;;;;;;1.67;0.68;;;;;;;;;;5014554;28;20045;-54
2021/08/23 08:15:54;;;;;;;2.28;0.75;;;;;;;;;;5015175;28;20038;-55
2021/08/23 08:18:20;;;;;;;2.35;0.75;;;;;;;;;;5013217;28;20073;-52
2021/08/23 08:20:46;;;;;;;2.65;0.90;;;;;;;;;;5000747;28;20113;-53
2021/08/23 08:23:12;;;;;;;2.15;0.85;;;;;;;;;;5002618;28;20062;-53
2021/08/23 08:25:38;;;;;;;2.60;0.88;;;;;;;;;;5002890;28;20351;-54
2021/08/23 08:28:05;;;;;;;2.75;0.90;;;;;;;;;;4992905;28;20129;-54
2021/08/23 08:30:31;;;;;;;2.63;0.90;;;;;;;;;;4993097;28;20816;-54
2021/08/23 08:32:57;;;;;;;2.78;0.80;;;;;;;;;;4991778;28;20038;-53
2021/08/23 08:35:24;;;;;;;1.98;0.70;;;;;;;;;;4988304;28;20575;-54
2021/08/23 08:37:52;;;;;;;2.13;0.80;;;;;;;;;;4992206;28;20391;-54
2021/08/23 08:40:18;;;;;;;2.40;0.80;;;;;;;;;;5008713;28;20061;-54
2021/08/23 08:42:44;;;;;;;2.60;0.95;;;;;;;;;;5013379;28;20049;-54
2021/08/23 08:45:10;;;;;;;2.35;0.70;;;;;;;;;;4999000;28;20052;-53
2021/08/23 08:47:38;;;;;;;2.78;1.00;;;;;;;;;;4989092;28;20077;-54
2021/08/23 08:50:04;;;;;;;4.55;0.85;;;;;;;;;;4997460;28;20037;-54
2021/08/23 08:52:31;;;;;;;2.67;1.00;;;;;;;;;;5004269;28;20786;-53
2021/08/23 08:54:57;;;;;;;0.70;0.40;;;;;;;;;;4993733;28;20061;-51
2021/08/23 08:57:23;;;;;;;2.50;0.77;;;;;;;;;;5000219;28;20112;-53
2021/08/23 08:59:48;;;;;;;1.40;0.60;;;;;;;;;;5003011;28;20490;-53
2021/08/23 09:02:15;;;;;;;1.92;0.70;;;;;;;;;;4991156;28;20042;-51
2021/08/23 09:04:41;;;;;;;1.65;0.70;;;;;;;;;;4999920;28;20049;-55
2021/08/23 09:07:08;;;;;;;1.98;0.65;;;;;;;;;;4995598;28;20053;-51
2021/08/23 09:09:34;;;;;;;2.15;0.73;;;;;;;;;;5016425;28;20639;-53
2021/08/23 09:12:04;;;;;;;2.20;0.63;;;;;;;;;;5001674;28;20077;-52
2021/08/23 09:14:31;;;;;;;1.20;0.65;;;;;;;;;;4986457;28;20403;-52
2021/08/23 09:17:04;;;;;;;1.77;0.70;;;;;;;;;;4993827;28;20743;-53
2021/08/23 09:19:33;;;;;;;;;;;;;;;;;;4993556;28;20070;-53
2021/08/23 09:22:00;;;;;;;3.15;0.95;;;;;;;;;;4993343;28;19964;-54
2021/08/23 09:24:29;;;;;;;1.85;0.80;;;;;;;;;;5026011;28;20056;-54
2021/08/23 09:27:04;;;;;;;1.75;0.60;;;;;;;;;;5011670;28;20045;-52
2021/08/23 09:29:30;;;;;;;1.88;0.70;;;;;;;;;;5004106;28;20097;-53
2021/08/23 09:31:59;;;;;;;2.03;0.60;;;;;;;;;;4999766;28;20116;-53
2021/08/23 09:34:25;;;;;;;2.30;0.80;;;;;;;;;;4996782;28;20061;-50
2021/08/23 09:36:58;;;;;;;2.65;0.88;;;;;;;;;;5006787;28;20049;-53
2021/08/23 09:39:28;;;;;;;2.97;0.70;;;;;;;;;;5015868;28;20076;-54
2021/08/23 09:42:04;;;;;;;3.20;0.90;;;;;;;;;;5009495;28;20045;-54
2021/08/23 09:44:34;;;;;;;1.90;0.60;;;;;;;;;;5005679;28;20048;-52
2021/08/23 09:47:00;;;;;;;1.65;0.50;;;;;;;;;;4998011;28;20045;-55
2021/08/23 09:49:33;;;;;;;1.40;0.52;;;;;;;;;;4994610;28;20054;-53
2021/08/23 09:51:58;;;;;;;1.67;0.70;;;;;;;;;;5017300;28;20037;-52
2021/08/23 09:54:24;;;;;;;1.90;0.68;;;;;;;;;;5009546;28;20123;-56
2021/08/23 09:56:51;;;;;;;1.73;0.50;;;;;;;;;;5014440;28;20545;-55
2021/08/23 09:59:21;;;;;;;2.40;0.77;;;;;;;;;;4993520;28;20099;-55
2021/08/23 10:01:47;;;;;;;2.08;0.60;;;;;;;;;;5006619;28;20129;-54
2021/08/23 10:04:13;;;;;;;2.15;0.65;;;;;;;;;;5000409;28;20045;-55
2021/08/23 10:06:40;;;;;;;1.75;0.63;;;;;;;;;;5003050;28;20072;-53
2021/08/23 10:09:06;;;;;;;2.67;0.60;;;;;;;;;;5017918;28;20046;-54
2021/08/23 10:11:33;;;;;;;2.35;0.68;;;;;;;;;;5011062;28;20464;-55
2021/08/23 10:13:59;;;;;;;4.05;0.80;;;;;;;;;;5008090;28;20042;-54
2021/08/23 10:16:25;;;;;;;5.80;0.70;;;;;;;;;;4992804;28;20070;-54
2021/08/23 10:18:53;;;;;;;2.65;0.80;;;;;;;;;;5001380;28;20125;-53
2021/08/23 10:21:19;;;;;;;2.60;0.77;;;;;;;;;;5006923;28;20108;-54
2021/08/23 10:23:46;;;;;;;2.10;0.70;;;;;;;;;;4992895;28;20050;-52
2021/08/23 10:26:12;;;;;;;1.70;0.68;;;;;;;;;;4992912;28;20050;-55
2021/08/23 10:28:38;;;;;;;2.70;0.90;;;;;;;;;;4998305;28;20033;-56
2021/08/23 10:31:10;;;;;;;3.63;0.88;;;;;;;;;;4995552;28;20518;-55
2021/08/23 10:33:37;;;;;;;2.50;0.80;;;;;;;;;;5015699;28;20038;-54
2021/08/23 10:36:06;;;;;;;2.85;0.85;;;;;;;;;;5008461;28;20060;-56
2021/08/23 10:38:32;;;;;;;2.33;0.80;;;;;;;;;;5007309;28;20043;-52
2021/08/23 10:41:09;;;;;;;3.78;1.02;;;;;;;;;;5010815;28;20454;-54
2021/08/23 10:43:42;;;;;;;2.30;0.75;;;;;;;;;;5016899;28;20072;-54
2021/08/23 10:46:18;;;;;;;2.53;0.80;;;;;;;;;;5016121;28;20056;-55
2021/08/23 10:48:48;;;;;;;3.00;1.00;;;;;;;;;;4996231;28;20202;-54
2021/08/23 10:51:25;;;;;;;3.35;0.88;;;;;;;;;;5002169;28;20034;-51
2021/08/23 10:53:50;;;;;;;2.50;0.88;;;;;;;;;;5016042;28;20033;-56
2021/08/23 10:56:21;;;;;;;2.70;0.90;;;;;;;;;;5016566;28;20064;-55
2021/08/23 10:58:48;;;;;;;3.08;0.98;;;;;;;;;;4993684;28;20038;-55
2021/08/23 11:01:18;;;;;;;5.35;1.15;;;;;;;;;;4997829;28;20045;-54
2021/08/23 11:03:44;;;;;;;3.15;1.02;;;;;;;;;;5016103;28;20483;-54
2021/08/23 11:06:10;;;;;;;3.40;0.90;;;;;;;;;;5017902;28;20163;-55
2021/08/23 11:08:36;;;;;;;2.08;0.88;;;;;;;;;;5015975;28;20072;-56
2021/08/23 11:11:12;;;;;;;2.53;0.93;;;;;;;;;;5016573;28;20069;-54
2021/08/23 11:13:42;;;;;;;3.50;1.20;;;;;;;;;;5016434;28;20233;-53
2021/08/23 11:16:08;;;;;;;4.90;1.02;;;;;;;;;;5016506;28;20136;-55
2021/08/23 11:18:41;;;;;;;4.97;1.00;;;;;;;;;;5014297;28;20048;-55
2021/08/23 11:21:07;;;;;;;3.85;1.00;;;;;;;;;;5016950;28;20430;-55
2021/08/23 11:23:33;;;;;;;3.10;1.13;;;;;;;;;;5013898;28;20045;-55
2021/08/23 11:26:02;;;;;;;5.22;1.17;;;;;;;;;;5016751;28;20037;-53
2021/08/23 11:28:31;;;;;;;2.80;1.05;;;;;;;;;;5015544;28;20052;-55
2021/08/23 11:30:58;;;;;;;3.22;1.10;;;;;;;;;;5015356;28;20071;-55
2021/08/23 11:33:31;;;;;;;2.40;0.90;;;;;;;;;;5014547;28;20137;-54
2021/08/23 11:35:57;;;;;;;2.42;1.00;;;;;;;;;;5016019;28;20443;-52
2021/08/23 11:38:30;;;;;;;2.78;0.90;;;;;;;;;;5014783;28;20037;-55
2021/08/23 11:40:56;;;;;;;2.53;0.82;;;;;;;;;;5015818;28;20060;-55
2021/08/23 11:43:25;;;;;;;2.60;0.90;;;;;;;;;;5015780;28;20048;-54
2021/08/23 11:45:51;;;;;;;2.25;0.80;;;;;;;;;;5016334;28;20037;-52
2021/08/23 11:48:17;;;;;;;2.65;0.80;;;;;;;;;;5015403;28;20103;-54
2021/08/23 11:50:43;;;;;;;2.78;0.95;;;;;;;;;;4996370;28;20037;-54
2021/08/23 11:53:10;;;;;;;2.75;0.90;;;;;;;;;;4993767;28;20042;-55
2021/08/23 11:55:39;;;;;;;2.90;0.93;;;;;;;;;;5004658;28;20042;-54
2021/08/23 11:58:05;;;;;;;2.97;1.02;;;;;;;;;;4995687;28;20048;-52
2021/08/23 12:00:32;;;;;;;3.53;1.00;;;;;;;;;;4995359;28;20033;-54
2021/08/23 12:03:02;;;;;;;2.80;1.10;;;;;;;;;;4995499;28;20060;-53
2021/08/23 12:05:32;;;;;;;2.55;0.98;;;;;;;;;;4999718;28;20401;-52
2021/08/23 12:07:58;;;;;;;2.63;0.85;;;;;;;;;;4998667;28;20077;-53
2021/08/23 12:10:27;;;;;;;2.83;0.85;;;;;;;;;;4992447;28;20196;-52
2021/08/23 12:13:04;;;;;;;3.08;1.10;;;;;;;;;;4991558;28;20439;-53
2021/08/23 12:15:30;;;;;;;2.88;1.00;;;;;;;;;;4999879;28;20046;-55
2021/08/23 12:17:58;;;;;;;2.92;0.90;;;;;;;;;;4991201;28;20061;-53
2021/08/23 12:20:24;;;;;;;2.35;0.82;;;;;;;;;;5002413;28;20041;-52
2021/08/23 12:23:00;;;;;;;3.72;0.90;;;;;;;;;;5000788;28;20929;-53
2021/08/23 12:25:26;;;;;;;3.05;0.90;;;;;;;;;;5011794;28;20088;-53
2021/08/23 12:27:51;;;;;;;8.07;1.10;;;;;;;;;;5008030;28;20050;-54
2021/08/23 12:30:28;;;;;;;3.05;1.10;;;;;;;;;;4988649;28;21883;-53
2021/08/23 12:32:53;;;;;;;2.65;1.00;;;;;;;;;;5006800;28;20112;-52
2021/08/23 12:35:29;;;;;;;2.80;0.90;;;;;;;;;;5015037;28;20037;-52
2021/08/23 12:37:55;;;;;;;3.42;0.95;;;;;;;;;;5015450;28;20037;-54
2021/08/23 12:40:22;;;;;;;2.83;0.90;;;;;;;;;;4996960;28;20190;-54
2021/08/23 12:42:53;;;;;;;4.05;1.00;;;;;;;;;;5001145;28;20067;-54
2021/08/23 12:45:19;;;;;;;2.92;1.02;;;;;;;;;;4999363;28;20095;-55
2021/08/23 12:47:44;;;;;;;3.03;0.90;;;;;;;;;;5007351;28;20053;-54
2021/08/23 12:50:10;;;;;;;3.15;0.80;;;;;;;;;;5008738;28;20498;-54
2021/08/23 12:52:36;;;;;;;2.45;0.98;;;;;;;;;;5017066;28;20057;-54
2021/08/23 12:55:02;;;;;;;2.92;1.13;;;;;;;;;;5004091;28;20133;-55
2021/08/23 12:57:28;;;;;;;3.20;1.00;;;;;;;;;;4998560;28;20038;-54
2021/08/23 12:59:53;;;;;;;2.70;0.90;;;;;;;;;;5010643;28;20037;-53
2021/08/23 13:02:21;;;;;;;3.85;0.88;;;;;;;;;;5008891;28;20163;-53
2021/08/23 13:04:47;;;;;;;2.88;0.98;;;;;;;;;;5007212;28;20042;-55
2021/08/23 13:07:13;;;;;;;2.83;1.10;;;;;;;;;;5017486;28;20117;-54
2021/08/23 13:09:39;;;;;;;2.90;0.98;;;;;;;;;;5018393;28;20045;-51
2021/08/23 13:12:05;;;;;;;3.08;1.10;;;;;;;;;;5002632;28;20048;-54
2021/08/23 13:14:31;;;;;;;2.78;1.00;;;;;;;;;;5016749;28;20079;-54
2021/08/23 13:17:00;;;;;;;2.60;0.98;;;;;;;;;;5006121;28;20046;-54
2021/08/23 13:19:26;;;;;;;3.58;1.13;;;;;;;;;;5003155;28;20565;-51
2021/08/23 13:21:53;;;;;;;3.70;1.30;;;;;;;;;;4991715;28;20057;-54
2021/08/23 13:24:19;;;;;;;3.03;1.10;;;;;;;;;;5000295;28;20124;-52
2021/08/23 13:26:45;;;;;;;3.75;1.25;;;;;;;;;;5006928;28;20053;-51
2021/08/23 13:29:11;;;;;;;3.42;1.20;;;;;;;;;;5006221;28;20042;-54
2021/08/23 13:31:36;;;;;;;3.28;1.20;;;;;;;;;;4996969;28;20073;-53
2021/08/23 13:34:02;;;;;;;3.10;1.10;;;;;;;;;;5000790;28;20037;-53
2021/08/23 13:36:28;;;;;;;4.70;1.08;;;;;;;;;;5010740;28;20115;-54
2021/08/23 13:38:54;;;;;;;2.35;0.80;;;;;;;;;;4996243;28;22589;-53
2021/08/23 13:41:20;;;;;;;4.13;1.10;;;;;;;;;;5002927;28;20129;-52
2021/08/23 13:43:49;;;;;;;3.40;1.35;;;;;;;;;;5002719;28;20056;-53
2021/08/23 13:46:16;;;;;;;3.60;1.05;;;;;;;;;;5010324;28;20557;-54
2021/08/23 13:48:42;;;;;;;4.30;1.30;;;;;;;;;;4993955;28;20038;-54
2021/08/23 13:51:08;;;;;;;3.85;1.40;;;;;;;;;;5001921;28;20053;-52
2021/08/23 13:53:33;;;;;;;5.20;1.20;;;;;;;;;;5002645;28;20046;-55
2021/08/23 13:55:59;;;;;;;3.20;1.10;;;;;;;;;;5009790;28;20033;-54
2021/08/23 13:58:25;;;;;;;3.28;1.20;;;;;;;;;;5008592;28;20054;-53
2021/08/23 14:00:51;;;;;;;3.30;1.13;;;;;;;;;;5005352;28;20041;-53
2021/08/23 14:03:17;;;;;;;3.55;1.10;;;;;;;;;;5003171;28;20049;-54
2021/08/23 14:05:42;;;;;;;2.80;1.08;;;;;;;;;;5016742;28;20045;-51
2021/08/23 14:08:08;;;;;;;3.33;1.02;;;;;;;;;;5018206;28;20514;-54
2021/08/23 14:10:34;;;;;;;4.40;1.00;;;;;;;;;;4997733;28;20034;-52
2021/08/23 14:13:00;;;;;;;3.33;1.08;;;;;;;;;;4998517;28;20045;-54
2021/08/23 14:15:26;;;;;;;3.63;1.10;;;;;;;;;;5008646;28;20045;-54
2021/08/23 14:17:52;;;;;;;6.28;0.90;;;;;;;;;;4994868;28;20060;-54
2021/08/23 14:20:18;;;;;;;2.90;0.90;;;;;;;;;;4998535;28;20411;-54
2021/08/23 14:22:44;;;;;;;3.35;0.90;;;;;;;;;;4998716;28;20042;-55
2021/08/23 14:25:12;;;;;;;2.50;0.90;;;;;;;;;;5012750;28;20608;-53
2021/08/23 14:27:39;;;;;;;2.72;0.90;;;;;;;;;;5008277;28;20045;-54
2021/08/23 14:30:05;;;;;;;2.40;0.70;;;;;;;;;;5006380;28;20042;-53
2021/08/23 14:32:31;;;;;;;2.35;0.70;;;;;;;;;;5016619;28;20470;-52
2021/08/23 14:34:57;;;;;;;3.42;0.77;;;;;;;;;;5002254;28;20387;-53
2021/08/23 14:37:23;;;;;;;2.05;0.70;;;;;;;;;;5006297;28;20131;-54
2021/08/23 14:39:49;;;;;;;1.55;0.60;;;;;;;;;;4998829;28;20057;-55